Latest Weather Observations for Fortescue Dave Forrest

IDW60801

Issued at 2:34 pm WST Monday 27 February 2017 (issued every 30 minutes, with the page automatically refreshed every 10 minutes)

About weather observations | Map of weather stations | Latest weather observations for WA | Other Formats
Station Details ID: 505056 Name: FORTESCUE DAVE FORREST Lat: -22.29 Lon: 119.43 Height: 474.6 m
Data from the previous 72 hours. | See also: Recent months for locations in Western Australia
Date/Time
WST
Temp
°C
App
Temp
°C
Dew
Point
°C
Rel
Hum
%
Delta-T
°C
Wind Press
QNH
hPa
Press
MSL
hPa
Rain since
9am
mm
Dir  Spd
km/h
Gust
km/h
Spd
kts
Gust
kts
27/02:30pm 31.7 32.4 17.9 43 9.0 NNE 11 17 6 9 1012.6 1008.7 0.0
27/02:00pm 32.2 33.9 18.0 42 9.3 NE 6 13 3 7 1012.7 1008.8 0.0
27/01:30pm 31.5 32.9 17.8 44 8.9 NW 7 15 4 8 1012.8 1008.9 0.0
27/01:00pm 30.5 32.1 17.9 47 8.2 NNE 6 17 3 9 1013.3 1009.5 0.0
27/12:30pm 30.2 30.5 18.0 48 7.9 ENE 13 19 7 10 1013.8 1009.9 0.0
27/12:00pm 29.4 30.2 18.2 51 7.3 ENE 11 19 6 10 1014.1 1010.2 0.0
27/11:30am 28.8 29.1 18.0 52 7.0 ENE 13 24 7 13 1014.5 1010.6 0.0
27/11:00am 28.1 28.9 19.1 58 5.9 E 13 19 7 10 1014.7 1010.8 0.0
27/10:30am 27.9 27.9 18.9 58 5.9 ENE 17 24 9 13 1014.9 1011.0 0.0
27/10:00am 27.7 28.1 19.0 59 5.7 ESE 15 22 8 12 1015.0 1011.1 0.0
27/09:30am 26.7 26.4 19.1 63 5.0 ESE 19 24 10 13 1015.2 1011.4 0.0
27/09:00am 26.4 25.2 18.5 62 5.1 E 22 32 12 17 1015.1 1011.3 1.4
27/08:30am 24.7 23.5 18.4 68 4.1 E 22 30 12 16 1015.1 1011.3 1.4
27/08:00am 24.2 23.1 18.6 71 3.6 E 22 35 12 19 1014.7 1010.8 1.4
27/07:30am 23.7 22.8 18.1 71 3.6 E 20 26 11 14 1014.4 1010.5 1.4
27/07:00am 23.1 22.9 18.6 76 2.9 E 17 28 9 15 1014.5 1010.6 1.4
27/06:30am 23.2 21.6 18.3 74 3.1 ENE 24 37 13 20 1014.9 1011.0 1.4
27/06:00am 23.0 21.3 19.8 82 2.1 E 28 39 15 21 1014.9 1011.0 1.4
27/05:30am 22.9 20.3 19.5 81 2.2 ENE 32 44 17 24 1014.7 1010.8 1.4
27/05:00am 23.7 20.3 19.0 75 3.0 ENE 35 46 19 25 1014.1 1010.2 1.4
27/04:30am 24.6 22.1 18.1 67 4.2 ENE 28 37 15 20 1013.5 1009.6 1.4
27/04:00am 24.1 21.9 18.7 72 3.5 ENE 28 39 15 21 1013.0 1009.1 1.4
27/03:30am 23.5 21.8 19.0 76 2.9 ENE 26 33 14 18 1012.9 1009.0 1.4
27/03:00am 23.4 23.0 18.1 72 3.4 E 17 26 9 14 1012.6 1008.7 1.4
27/02:30am 22.8 22.6 18.6 77 2.7 ESE 17 24 9 13 1012.7 1008.8 1.4
27/02:00am 22.5 21.7 18.5 78 2.6 E 20 30 11 16 1013.2 1009.4 1.4
27/01:30am 22.5 19.9 18.7 79 2.4 E 30 41 16 22 1013.8 1009.9 1.4
27/01:00am 22.0 18.6 19.0 83 1.9 E 35 48 19 26 1014.1 1010.2 1.2
27/12:48am 22.0 17.8 18.8 82 2.1 E 39 57 21 31 1013.8 1009.9 1.0
27/12:30am 22.0 17.3 18.6 81 2.2 ENE 41 57 22 31 1014.3 1010.4 0.8
27/12:00am 23.5 17.3 19.0 76 2.9 ENE 50 70 27 38 1014.6 1010.7 0.8
 
Date/Time
WST
Temp
°C
App
Temp
°C
Dew
Point
°C
Rel
Hum
%
Delta-T
°C
Wind Press
QNH
hPa
Press
MSL
hPa
Rain since
9am
mm
Dir  Spd
km/h
Gust
km/h
Spd
kts
Gust
kts
26/11:30pm 23.4 20.8 19.8 80 2.4 NE 33 56 18 30 1015.3 1011.5 0.8
26/11:15pm 26.0 25.5 17.9 61 5.2 NE 17 50 9 27 1015.3 1011.5 0.6
26/11:00pm 25.9 26.0 17.5 59 5.4 ESE 13 19 7 10 1014.2 1010.3 0.6
26/10:30pm 25.8 23.0 17.4 59 5.4 E 28 37 15 20 1013.7 1009.8 0.6
26/10:00pm 25.8 22.8 16.9 58 5.6 E 28 39 15 21 1013.8 1009.9 0.6
26/09:30pm 25.3 23.0 17.5 62 5.0 E 26 33 14 18 1013.8 1009.9 0.6
26/09:00pm 26.0 23.4 17.9 61 5.2 ESE 28 37 15 20 1013.8 1009.9 0.6
26/08:30pm 25.3 24.0 19.9 72 3.6 E 26 41 14 22 1013.8 1009.9 0.6
26/08:00pm 25.4 24.8 19.8 71 3.7 E 22 28 12 15 1013.6 1009.7 0.6
26/07:30pm 25.6 25.7 19.9 70 3.8 E 19 26 10 14 1013.6 1009.7 0.6
26/07:00pm 25.5 26.8 20.1 72 3.6 E 13 28 7 15 1013.0 1009.1 0.6
26/06:30pm 26.9 26.9 19.0 62 5.2 NE 17 26 9 14 1012.6 1008.7 0.6
26/06:00pm 27.5 27.2 20.3 65 4.8 NE 22 32 12 17 1012.7 1008.8 0.6
26/05:30pm 26.9 29.2 19.5 64 4.9 ESE 6 9 3 5 1011.9 1008.0 0.6
26/05:00pm 26.8 28.5 19.4 64 4.9 S 9 13 5 7 1011.6 1007.7 0.6
26/04:30pm 26.3 28.0 20.2 69 4.1 SSW 11 17 6 9 1011.1 1007.2 0.6
26/04:00pm 25.4 26.4 19.5 70 3.9 SSE 13 17 7 9 1012.0 1008.1 0.6
26/03:30pm 24.8 26.1 19.4 72 3.5 S 11 17 6 9 1012.0 1008.1 0.6
26/03:00pm 26.4 26.6 19.3 65 4.7 SE 17 37 9 20 1012.2 1008.3 0.6
26/02:30pm 25.7 27.3 20.7 74 3.3 NW 13 28 7 15 1011.8 1007.9 0.6
26/02:16pm 26.7 25.2 20.3 68 4.3 NNE 28 48 15 26 1011.0 1007.1 0.4
26/02:14pm 27.5 26.7 20.1 64 4.9 NNE 24 37 13 20 1011.1 1007.2 0.2
26/02:00pm 33.0 33.6 17.6 40 10.1 ESE 11 19 6 10 1011.0 1007.1 0.2
26/01:58pm 33.0 33.6 17.6 40 10.1 ESE 11 19 6 10 1010.9 1007.0 0.2
26/01:30pm 28.0 28.3 19.5 60 5.6 SSE 17 35 9 19 1011.1 1007.2 0.2
26/01:25pm 28.1 25.3 18.2 55 6.4 SE 30 57 16 31 1011.4 1007.5 0.2
26/01:14pm 33.1 29.6 15.6 35 11.1 ESE 28 57 15 31 1011.4 1007.5 0.0
26/01:00pm 35.8 34.2 16.0 30 12.8 ENE 19 32 10 17 1011.5 1007.6 0.0
26/12:30pm 34.5 32.5 16.4 34 11.7 E 22 32 12 17 1012.0 1008.1 0.0
26/12:00pm 35.9 33.2 15.6 30 13.0 ESE 24 33 13 18 1012.3 1008.4 0.0
26/11:30am 35.4 34.1 16.7 33 12.2 ESE 19 28 10 15 1012.6 1008.7 0.0
26/11:00am 33.9 32.4 16.7 35 11.1 E 20 30 11 16 1013.0 1009.1 0.0
26/10:30am 34.0 33.8 16.8 35 11.1 E 13 22 7 12 1013.3 1009.5 0.0
26/10:00am 32.8 33.3 17.4 39 10.0 ENE 11 22 6 12 1013.6 1009.7 0.0
26/09:30am 32.0 31.0 17.5 42 9.4 ENE 19 24 10 13 1013.8 1009.9 0.0
26/09:00am 31.3 30.6 18.3 46 8.5 NE 19 28 10 15 1013.8 1009.9 0.0
26/08:30am 30.3 29.1 18.4 49 7.8 NE 22 32 12 17 1013.8 1009.9 0.0
26/08:00am 29.4 28.4 17.9 50 7.5 NE 20 30 11 16 1013.8 1009.9 0.0
26/07:30am 28.5 26.9 16.4 48 7.7 NE 20 28 11 15 1013.7 1009.8 0.0
26/07:00am 27.7 27.1 15.7 48 7.5 NE 13 19 7 10 1013.2 1009.4 0.0
26/06:30am 26.8 26.1 15.5 50 7.0 NE 13 20 7 11 1013.0 1009.1 0.0
26/06:00am 26.0 26.4 14.8 50 6.9 ENE 6 9 3 5 1012.7 1008.8 0.0
26/05:30am 25.3 26.1 13.8 49 6.9 E 2 6 1 3 1012.6 1008.7 0.0
26/05:00am 25.9 24.8 13.1 45 7.6 E 11 15 6 8 1012.6 1008.7 0.0
26/04:30am 24.0 24.1 13.8 53 6.1 E 6 9 3 5 1012.4 1008.5 0.0
26/04:00am 24.6 24.5 12.2 46 7.2 SE 4 7 2 4 1011.9 1008.0 0.0
26/03:30am 24.5 24.9 12.5 47 7.0 SE 2 6 1 3 1011.8 1007.9 0.0
26/03:00am 25.5 25.0 12.0 43 7.9 ESE 6 7 3 4 1011.8 1007.9 0.0
26/02:30am 25.9 25.2 12.0 42 8.1 SE 7 11 4 6 1012.1 1008.2 0.0
26/02:00am 27.4 25.4 11.4 37 9.3 E 13 15 7 8 1012.1 1008.2 0.0
26/01:30am 27.6 25.5 11.2 36 9.5 E 13 15 7 8 1012.4 1008.5 0.0
26/01:00am 28.1 25.9 10.8 34 10.0 E 13 19 7 10 1012.6 1008.7 0.0
26/12:30am 29.1 26.4 10.3 31 10.9 E 15 19 8 10 1012.8 1008.9 0.0
26/12:00am 29.0 26.4 10.6 32 10.7 ENE 15 19 8 10 1013.1 1009.3 0.0
 
Date/Time
WST
Temp
°C
App
Temp
°C
Dew
Point
°C
Rel
Hum
%
Delta-T
°C
Wind Press
QNH
hPa
Press
MSL
hPa
Rain since
9am
mm
Dir  Spd
km/h
Gust
km/h
Spd
kts
Gust
kts
25/11:30pm 28.8 26.8 11.4 34 10.2 ENE 13 15 7 8 1013.2 1009.4 0.0
25/11:00pm 28.7 26.6 11.3 34 10.2 ENE 13 15 7 8 1013.5 1009.6 0.0
25/10:30pm 29.0 26.9 11.1 33 10.5 E 13 15 7 8 1013.7 1009.8 0.0
25/10:00pm 29.3 27.5 10.9 32 10.7 ENE 11 13 6 7 1013.6 1009.7 0.0
25/09:30pm 29.0 27.8 11.6 34 10.3 ENE 9 13 5 7 1013.7 1009.8 0.0
25/09:00pm 29.1 29.3 12.9 37 9.7 E 4 6 2 3 1013.6 1009.7 0.0
25/08:30pm 29.5 29.4 12.0 34 10.4 E 4 7 2 4 1013.3 1009.5 0.0
25/08:00pm 30.0 29.9 12.0 33 10.7 E 4 7 2 4 1013.1 1009.3 0.0
25/07:30pm 30.6 29.6 11.1 30 11.5 ESE 7 11 4 6 1012.9 1009.0 0.0
25/07:00pm 32.3 30.2 9.8 25 13.1 ESE 11 15 6 8 1012.6 1008.7 0.0
25/06:30pm 33.8 31.1 9.1 22 14.3 SE 13 22 7 12 1012.2 1008.3 0.0
25/06:00pm 35.3 31.3 8.2 19 15.6 SE 19 30 10 16 1012.0 1008.1 0.0
25/05:30pm 36.0 32.9 8.7 19 15.9 SE 15 28 8 15 1011.7 1007.8 0.0
25/05:00pm 36.7 32.6 8.5 18 16.4 SE 20 33 11 18 1011.7 1007.8 0.0
25/04:30pm 37.1 32.5 8.0 17 16.8 SE 22 33 12 18 1011.8 1007.9 0.0
25/04:00pm 37.5 33.7 7.4 16 17.3 ESE 17 22 9 12 1011.9 1008.0 0.0
25/03:30pm 37.2 32.6 6.3 15 17.4 E 20 37 11 20 1012.2 1008.3 0.0
25/03:00pm 37.7 33.3 7.6 16 17.3 ESE 20 30 11 16 1012.5 1008.6 0.0
25/02:30pm 37.6 33.6 8.4 17 17.0 ESE 19 32 10 17 1013.0 1009.1 0.0
25/02:00pm 37.2 32.0 7.2 16 17.1 ENE 24 35 13 19 1013.5 1009.6 0.0
25/01:30pm 37.6 32.8 7.5 16 17.3 E 22 32 12 17 1013.9 1010.0 0.0
25/01:00pm 37.2 32.2 8.1 17 16.8 ENE 24 37 13 20 1014.3 1010.4 0.0
25/12:30pm 36.4 30.9 7.4 17 16.5 E 26 37 14 20 1014.6 1010.7 0.0
25/12:00pm 37.0 31.2 7.9 17 16.8 ENE 28 43 15 23 1014.9 1011.0 0.0
25/11:30am 36.1 30.3 8.0 18 16.2 ENE 28 39 15 21 1015.4 1011.6 0.0
25/11:00am 36.0 30.4 8.7 19 15.8 E 28 41 15 22 1015.8 1011.9 0.0
25/10:30am 35.3 28.8 8.2 19 15.6 E 32 43 17 23 1016.0 1012.1 0.0
25/10:00am 34.2 28.2 8.8 21 14.6 E 30 39 16 21 1016.2 1012.3 0.0
25/09:30am 33.6 27.1 8.3 21 14.4 E 32 44 17 24 1016.5 1012.6 0.0
25/09:00am 32.5 26.8 9.9 25 13.2 E 30 41 16 22 1016.6 1012.7 -
25/08:30am 31.5 26.9 9.7 26 12.6 E 24 33 13 18 1016.4 1012.5 -
25/08:00am 30.3 26.3 10.3 29 11.6 E 22 30 12 16 1016.2 1012.3 -
25/07:30am 28.8 25.3 10.9 33 10.4 E 20 26 11 14 1016.1 1012.2 -
25/07:00am 27.7 24.4 11.7 37 9.4 ESE 20 28 11 15 1016.0 1012.1 -
25/06:30am 24.9 23.5 13.5 49 6.8 ESE 13 19 7 10 1015.7 1011.8 -
25/06:00am 23.1 23.2 14.4 58 5.2 SE 7 11 4 6 1015.2 1011.4 -
25/05:30am 23.5 23.9 14.8 58 5.3 ESE 6 7 3 4 1014.8 1010.9 -
25/05:00am 24.4 24.5 14.5 54 6.0 SE 7 9 4 5 1014.5 1010.6 -
25/04:30am 24.7 24.7 15.1 55 5.9 SE 9 13 5 7 1014.2 1010.3 -
25/04:00am 24.9 25.4 15.5 56 5.8 SE 7 11 4 6 1014.0 1010.1 -
25/03:30am 25.4 25.5 16.5 58 5.6 SE 11 15 6 8 1014.0 1010.1 -
25/03:00am 26.3 26.4 13.8 46 7.5 SSE 6 9 3 5 1013.7 1009.8 0.0
25/02:30am 26.8 26.1 13.2 43 8.1 ESE 9 13 5 7 1013.8 1009.9 -
25/02:00am 26.1 26.6 14.9 50 6.9 E 6 11 3 6 1013.9 1010.0 -
25/01:30am 26.5 27.7 15.8 51 6.7 E 4 6 2 3 1014.0 1010.1 -
25/01:00am 27.7 27.5 12.9 40 8.9 ESE 6 7 3 4 1014.3 1010.4 -
25/12:30am 28.3 29.1 14.9 44 8.3 E 4 7 2 4 1014.6 1010.7 -
25/12:00am 28.0 28.9 15.0 45 8.0 E 4 7 2 4 1014.9 1011.0 -
 
Date/Time
WST
Temp
°C
App
Temp
°C
Dew
Point
°C
Rel
Hum
%
Delta-T
°C
Wind Press
QNH
hPa
Press
MSL
hPa
Rain since
9am
mm
Dir  Spd
km/h
Gust
km/h
Spd
kts
Gust
kts
24/11:30pm 27.6 28.1 12.8 40 8.8 SE 2 4 1 2 1014.9 1011.0 -
24/11:00pm 28.0 29.5 15.6 46 7.7 SE 2 4 1 2 1015.0 1011.1 -
24/10:30pm 28.8 28.5 12.7 37 9.6 ESE 6 6 3 3 1015.1 1011.3 -
24/10:00pm 29.6 29.2 12.9 35 10.1 SE 7 11 4 6 1015.1 1011.3 -
24/09:30pm 29.1 28.9 12.9 37 9.7 ESE 6 6 3 3 1015.2 1011.4 -
24/09:00pm 29.9 29.4 11.9 33 10.7 ESE 6 6 3 3 1015.1 1011.3 -
24/08:30pm 30.3 29.7 11.8 32 11.0 ESE 6 6 3 3 1015.0 1011.1 -
24/08:00pm 30.5 30.1 12.4 33 10.9 ESE 6 9 3 5 1014.8 1010.9 -
24/07:30pm 30.7 30.5 13.5 35 10.5 ESE 7 11 4 6 1014.5 1010.6 -
24/07:00pm 32.1 32.0 13.3 31 11.5 E 6 9 3 5 1014.1 1010.2 -
24/06:30pm 34.0 32.5 11.8 26 13.4 E 11 15 6 8 1013.8 1009.9 -
24/06:00pm 35.8 34.2 10.1 21 15.2 E 9 17 5 9 1013.5 1009.6 -
24/05:30pm 36.7 32.6 8.5 18 16.4 ENE 20 26 11 14 1013.3 1009.5 -
24/05:00pm 37.6 34.4 10.0 19 16.4 E 17 28 9 15 1013.3 1009.5 0.0
24/04:30pm 37.5 33.8 10.0 19 16.4 E 20 30 11 16 1013.2 1009.4 0.0
24/04:00pm 38.0 34.1 9.6 18 16.9 ESE 20 30 11 16 1013.2 1009.4 0.0
24/03:30pm 37.9 34.0 8.6 17 17.1 E 19 32 10 17 1013.3 1009.5 0.0
24/03:00pm 37.8 33.5 9.4 18 16.8 ESE 22 37 12 20 1013.6 1009.7 0.0

Other Formats:

Comma delimited format used in spreadsheet applications
http://www.bom.gov.au/fwo/IDW60801/IDW60801.99736.axf

JavaScript Object Notation format (JSON) in row-major order
http://www.bom.gov.au/fwo/IDW60801/IDW60801.99736.json